createdAt,value
2023-05-08T00:00:59.434Z,21.3368
2023-05-08T00:04:00.177Z,19.9219
2023-05-08T00:05:02.782Z,22.4796
2023-05-08T00:06:05.284Z,23.2697
2023-05-08T00:07:07.869Z,22.3848
2023-05-08T00:08:10.576Z,23.8106
2023-05-08T00:09:13.075Z,23.1784
2023-05-08T00:10:15.863Z,21.4437
2023-05-08T00:11:18.271Z,23.1841
2023-05-08T00:12:20.833Z,22.1703
2023-05-08T00:13:23.561Z,22.0233
2023-05-08T00:14:26.015Z,24.0758
2023-05-08T00:15:28.650Z,22.1771
2023-05-08T00:16:31.264Z,23.3877
2023-05-08T00:17:33.849Z,24.3570
2023-05-08T00:18:36.405Z,23.0967
2023-05-08T00:19:39.169Z,24.0061
2023-05-08T00:20:41.611Z,22.4638
2023-05-08T00:21:44.219Z,21.8387
2023-05-08T00:22:46.789Z,22.8800
2023-05-08T00:23:49.444Z,22.3114
2023-05-08T00:24:51.980Z,23.4230
2023-05-08T00:25:54.620Z,23.0681
2023-05-08T00:26:57.170Z,25.3279
2023-05-08T00:27:59.802Z,24.7584
2023-05-08T00:29:03.341Z,20.9805
2023-05-08T00:30:04.986Z,22.5082
2023-05-08T00:31:07.581Z,21.3788
2023-05-08T00:32:10.235Z,23.3018
2023-05-08T00:33:12.772Z,23.1021
2023-05-08T00:34:15.357Z,22.3668
2023-05-08T00:35:17.942Z,23.3039
2023-05-08T00:36:20.559Z,23.3416
2023-05-08T00:37:23.117Z,23.5561
2023-05-08T00:38:25.736Z,25.0246
2023-05-08T00:39:28.346Z,22.9529
2023-05-08T00:40:30.931Z,24.4781
2023-05-08T00:41:33.501Z,22.9867
2023-05-08T00:44:10.266Z,23.3007
2023-05-08T00:45:12.884Z,25.2504
2023-05-08T00:46:15.461Z,26.3212
2023-05-08T00:47:18.080Z,25.1854
2023-05-08T00:48:20.662Z,22.7949
2023-05-08T00:49:23.271Z,22.7069
2023-05-08T00:50:25.845Z,24.0792
2023-05-08T00:51:28.491Z,24.4308
2023-05-08T00:52:31.035Z,21.9710
2023-05-08T00:53:33.683Z,22.8967
2023-05-08T00:54:36.241Z,24.8109
2023-05-08T00:55:38.880Z,23.6266
2023-05-08T00:56:41.439Z,23.9853
2023-05-08T00:57:44.050Z,23.1013
2023-05-08T00:58:46.620Z,21.6917
2023-05-08T00:59:49.242Z,21.9306
2023-05-08T01:00:51.828Z,23.6055
2023-05-08T01:01:54.536Z,23.1212
2023-05-08T01:02:57.099Z,21.7572
2023-05-08T01:03:59.692Z,23.1799
2023-05-08T01:05:02.223Z,21.0009
2023-05-08T01:06:04.872Z,23.0727
2023-05-08T01:07:07.557Z,22.5551
2023-05-08T01:08:10.023Z,21.5423
2023-05-08T01:09:12.597Z,20.2981
2023-05-08T01:10:15.604Z,19.2344
2023-05-08T01:11:17.792Z,17.3892
2023-05-08T01:12:20.425Z,17.4316
2023-05-08T01:13:23.082Z,18.5320
2023-05-08T01:14:25.635Z,16.3741
2023-05-08T01:15:28.179Z,17.7035
2023-05-08T01:16:31.058Z,17.7074
2023-05-08T01:17:33.403Z,16.3017
2023-05-08T01:18:35.995Z,17.3445
2023-05-08T01:19:38.577Z,17.8018
2023-05-08T01:20:41.195Z,18.7771
2023-05-08T01:21:44.005Z,18.5253
2023-05-08T01:22:46.391Z,19.4527
2023-05-08T01:23:48.964Z,18.6992
2023-05-08T01:24:51.575Z,19.2911
2023-05-08T01:25:54.166Z,19.1787
2023-05-08T01:26:56.748Z,17.0666
2023-05-08T01:27:59.322Z,16.8816
2023-05-08T01:29:01.946Z,17.2113
2023-05-08T01:30:04.517Z,17.5927
2023-05-08T01:31:07.137Z,16.5898
2023-05-08T01:32:09.701Z,15.4548
2023-05-08T01:33:12.372Z,16.5855
2023-05-08T01:34:14.904Z,15.2059
2023-05-08T01:35:17.528Z,14.5713
2023-05-08T01:36:20.090Z,15.5253
2023-05-08T01:37:22.701Z,15.1213
2023-05-08T01:38:25.274Z,15.2242
2023-05-08T01:39:27.893Z,15.6227
2023-05-08T01:40:30.473Z,14.2188
2023-05-08T01:41:33.152Z,15.6069
2023-05-08T01:42:35.650Z,14.5160
2023-05-08T01:43:38.270Z,14.3738
2023-05-08T01:44:40.848Z,14.3663
2023-05-08T01:45:43.459Z,14.5977
2023-05-08T01:46:46.092Z,15.6371
2023-05-08T01:47:48.736Z,15.0928
2023-05-08T01:48:51.214Z,14.6151
2023-05-08T01:49:53.835Z,17.1716
2023-05-08T01:50:56.433Z,16.9583
2023-05-08T01:51:59.038Z,15.5469
2023-05-08T01:53:01.604Z,16.6395
2023-05-08T01:54:04.230Z,14.8679
2023-05-08T01:55:06.787Z,14.6181
2023-05-08T01:56:09.402Z,15.5245
2023-05-08T01:57:11.989Z,15.3725
2023-05-08T01:58:14.576Z,15.6957
2023-05-08T01:59:17.647Z,15.5679
2023-05-08T02:00:19.765Z,15.2406
2023-05-08T02:01:22.452Z,12.6303
2023-05-08T02:02:25.009Z,14.8624
2023-05-08T02:03:27.946Z,15.2180
2023-05-08T02:04:30.133Z,15.5915
2023-05-08T02:05:32.773Z,15.5619
2023-05-08T02:06:35.339Z,15.6033
2023-05-08T02:07:37.961Z,14.2597
2023-05-08T02:08:40.517Z,13.7829
2023-05-08T02:09:43.141Z,14.6428
2023-05-08T02:10:45.710Z,12.9827
2023-05-08T02:11:48.352Z,14.0685
2023-05-08T02:12:51.066Z,13.5771
2023-05-08T02:13:53.548Z,15.2256
2023-05-08T02:14:56.109Z,15.4901
2023-05-08T02:15:58.722Z,16.0452
2023-05-08T02:17:01.358Z,14.8067
2023-05-08T02:18:03.940Z,15.3487
2023-05-08T02:19:06.492Z,15.1721
2023-05-08T02:20:09.109Z,14.3372
2023-05-08T02:21:11.689Z,14.5593
2023-05-08T02:22:14.284Z,15.4572
2023-05-08T02:23:16.864Z,13.2764
2023-05-08T02:24:19.470Z,14.7100
2023-05-08T02:25:22.049Z,15.3962
2023-05-08T02:26:24.658Z,16.5721
2023-05-08T02:27:27.260Z,15.8289
2023-05-08T02:28:29.868Z,30.4422
2023-05-08T02:29:32.423Z,17.5011
2023-05-08T02:30:35.061Z,16.0948
2023-05-08T02:31:37.642Z,15.9590
2023-05-08T02:32:40.264Z,15.7517
2023-05-08T02:33:42.806Z,15.5970
2023-05-08T02:34:58.842Z,16.9080
2023-05-08T02:35:47.986Z,17.0303
2023-05-08T02:36:50.606Z,15.6829
2023-05-08T02:37:53.184Z,16.0497
2023-05-08T02:38:55.799Z,15.5068
2023-05-08T02:39:58.375Z,16.1823
2023-05-08T02:41:00.991Z,15.0939
2023-05-08T02:42:03.569Z,14.4219
2023-05-08T02:43:06.177Z,15.5846
2023-05-08T02:44:08.752Z,15.7657
2023-05-08T02:45:11.370Z,15.6379
2023-05-08T02:46:14.001Z,15.4187
2023-05-08T02:47:16.550Z,14.2908
2023-05-08T02:48:19.139Z,16.5983
2023-05-08T02:49:21.746Z,13.8286
2023-05-08T02:50:24.320Z,16.0222
2023-05-08T02:51:26.960Z,15.1352
2023-05-08T02:52:29.516Z,15.5469
2023-05-08T02:53:32.145Z,16.2625
2023-05-08T02:54:34.961Z,16.4401
2023-05-08T02:55:37.348Z,15.7049
2023-05-08T02:56:39.906Z,16.5782
2023-05-08T02:57:42.536Z,15.9698
2023-05-08T02:58:45.099Z,13.2351
2023-05-08T02:59:47.701Z,16.8063
2023-05-08T03:00:50.283Z,15.6188
2023-05-08T03:01:53.063Z,15.9661
2023-05-08T03:02:55.538Z,16.8168
2023-05-08T03:03:58.170Z,17.5720
2023-05-08T03:05:00.668Z,15.7827
2023-05-08T03:06:03.277Z,15.1566
2023-05-08T03:07:05.872Z,17.2424
2023-05-08T03:08:08.768Z,15.1189
2023-05-08T03:09:11.037Z,16.5512
2023-05-08T03:10:13.932Z,17.4786
2023-05-08T03:11:16.237Z,16.5825
2023-05-08T03:12:18.860Z,16.6155
2023-05-08T03:13:21.564Z,17.7590
2023-05-08T03:14:24.034Z,17.9046
2023-05-08T03:15:26.621Z,19.0125
2023-05-08T03:16:29.330Z,18.7489
2023-05-08T03:17:31.824Z,17.0390
2023-05-08T03:18:34.420Z,17.3638
2023-05-08T03:19:36.981Z,18.2719
2023-05-08T03:20:39.609Z,17.9058
2023-05-08T03:21:42.198Z,18.1430
2023-05-08T03:22:44.964Z,16.8940
2023-05-08T03:23:47.367Z,17.4328
2023-05-08T03:24:49.979Z,17.9372
2023-05-08T03:25:52.560Z,17.9514
2023-05-08T03:26:55.171Z,17.5152
2023-05-08T03:27:57.741Z,18.2678
2023-05-08T03:29:00.382Z,17.2015
2023-05-08T03:30:02.983Z,16.9133
2023-05-08T03:31:05.596Z,18.0690
2023-05-08T03:32:08.328Z,19.1770
2023-05-08T03:33:10.740Z,17.5600
2023-05-08T03:34:13.309Z,19.0160
2023-05-08T03:35:15.938Z,18.2919
2023-05-08T03:36:18.505Z,18.2827
2023-05-08T03:37:21.127Z,19.2293
2023-05-08T03:38:23.696Z,18.5273
2023-05-08T03:39:26.333Z,18.4254
2023-05-08T03:40:28.886Z,19.0596
2023-05-08T03:41:31.509Z,20.9706
2023-05-08T03:42:34.092Z,20.1380
2023-05-08T03:43:36.710Z,19.5352
2023-05-08T03:46:13.925Z,17.5496
2023-05-08T03:47:16.078Z,18.4142
2023-05-08T03:48:18.691Z,19.5194
2023-05-08T03:49:21.232Z,18.4138
2023-05-08T03:50:23.866Z,18.2510
2023-05-08T03:51:26.435Z,19.1845
2023-05-08T03:52:29.069Z,20.5422
2023-05-08T03:53:31.635Z,18.7654
2023-05-08T03:54:34.257Z,19.1684
2023-05-08T03:55:36.870Z,18.8480
2023-05-08T03:56:39.458Z,20.0075
2023-05-08T03:57:42.041Z,19.3194
2023-05-08T03:58:44.667Z,18.9784
2023-05-08T03:59:47.232Z,17.6541
2023-05-08T04:00:49.862Z,18.5616
2023-05-08T04:01:52.478Z,19.0786
2023-05-08T04:02:55.150Z,19.4957
2023-05-08T04:03:57.673Z,19.1962
2023-05-08T04:05:00.265Z,19.4168
2023-05-08T04:06:02.831Z,20.4536
2023-05-08T04:07:05.452Z,18.4195
2023-05-08T04:08:08.034Z,19.0241
2023-05-08T04:09:10.651Z,18.2425
2023-05-08T04:10:13.593Z,22.1847
2023-05-08T04:11:15.889Z,19.1578
2023-05-08T04:12:18.425Z,19.8103
2023-05-08T04:13:21.069Z,18.7926
2023-05-08T04:14:23.630Z,20.1768
2023-05-08T04:15:26.255Z,20.1355
2023-05-08T04:16:28.841Z,22.1818
2023-05-08T04:17:31.544Z,20.5956
2023-05-08T04:18:34.025Z,21.1471
2023-05-08T04:19:36.651Z,21.4065
2023-05-08T04:20:39.220Z,20.3705
2023-05-08T04:21:41.844Z,19.2674
2023-05-08T04:22:44.725Z,19.7102
2023-05-08T04:23:47.062Z,19.3995
2023-05-08T04:24:49.624Z,18.8204
2023-05-08T04:25:52.252Z,20.6060
2023-05-08T04:26:54.826Z,21.0687
2023-05-08T04:27:57.455Z,22.3231
2023-05-08T04:29:00.032Z,23.2569
2023-05-08T04:30:02.654Z,24.2204
2023-05-08T04:31:05.226Z,22.4182
2023-05-08T04:32:08.078Z,21.0498
2023-05-08T04:33:10.471Z,20.7712
2023-05-08T04:34:13.051Z,20.6154
2023-05-08T04:35:15.736Z,19.2850
2023-05-08T04:36:18.255Z,20.5618
2023-05-08T04:37:20.817Z,20.4059
2023-05-08T04:38:23.432Z,20.0384
2023-05-08T04:39:26.012Z,20.4732
2023-05-08T04:40:28.635Z,19.0678
2023-05-08T04:41:31.327Z,19.7350
2023-05-08T04:42:33.838Z,20.3006
2023-05-08T04:43:36.400Z,19.8815
2023-05-08T04:44:39.025Z,21.2118
2023-05-08T04:47:11.026Z,17.1336
2023-05-08T04:48:13.590Z,18.2829
2023-05-08T04:49:16.219Z,18.9762
2023-05-08T04:50:18.795Z,19.2979
2023-05-08T04:51:21.413Z,18.7378
2023-05-08T04:52:23.980Z,20.4380
2023-05-08T04:53:26.607Z,20.1710
2023-05-08T04:54:29.189Z,20.9647
2023-05-08T04:55:31.820Z,20.9276
2023-05-08T04:56:34.391Z,20.3535
2023-05-08T04:57:37.023Z,22.4273
2023-05-08T04:58:39.594Z,19.0208
2023-05-08T04:59:42.223Z,23.5082
2023-05-08T05:00:44.792Z,26.0144
2023-05-08T05:01:47.442Z,25.9908
2023-05-08T05:02:50.065Z,26.0240
2023-05-08T05:03:52.703Z,20.7434
2023-05-08T05:04:55.206Z,20.9475
2023-05-08T05:05:57.821Z,19.9589
2023-05-08T05:07:00.403Z,20.5118
2023-05-08T05:08:03.020Z,18.1316
2023-05-08T05:09:05.599Z,21.1777
2023-05-08T05:10:08.271Z,23.3319
2023-05-08T05:11:10.786Z,22.4984
2023-05-08T05:12:13.544Z,23.4731
2023-05-08T05:13:16.054Z,21.9851
2023-05-08T05:14:18.616Z,21.6015
2023-05-08T05:15:21.179Z,21.8833
2023-05-08T05:16:23.838Z,22.6906
2023-05-08T05:17:26.421Z,21.1412
2023-05-08T05:18:29.005Z,20.8090
2023-05-08T05:19:31.639Z,20.2461
2023-05-08T05:20:34.206Z,23.4791
2023-05-08T05:21:36.780Z,19.9827
2023-05-08T05:22:39.407Z,19.6927
2023-05-08T05:23:41.992Z,20.8626
2023-05-08T05:24:44.593Z,20.7437
2023-05-08T05:25:47.174Z,18.8450
2023-05-08T05:26:49.806Z,20.4307
2023-05-08T05:27:52.377Z,19.6582
2023-05-08T05:28:54.995Z,22.0103
2023-05-08T05:29:57.566Z,19.5879
2023-05-08T05:31:00.221Z,18.5010
2023-05-08T05:32:02.797Z,18.5440
2023-05-08T05:33:05.424Z,18.9403
2023-05-08T05:34:07.956Z,20.1830
2023-05-08T05:35:10.651Z,17.1139
2023-05-08T05:36:13.437Z,17.9761
2023-05-08T05:37:15.797Z,16.9427
2023-05-08T05:38:18.354Z,17.4009
2023-05-08T05:39:20.981Z,18.7069
2023-05-08T05:40:25.670Z,20.5188
2023-05-08T05:41:28.199Z,20.0676
2023-05-08T05:42:30.766Z,18.4100
2023-05-08T05:43:33.443Z,17.3471
2023-05-08T05:44:35.964Z,15.9085
2023-05-08T05:45:38.606Z,17.4682
2023-05-08T05:46:44.116Z,15.8867
2023-05-08T05:47:41.791Z,16.9792
2023-05-08T05:48:44.312Z,15.1134
2023-05-08T05:49:46.996Z,16.5829
2023-05-08T05:50:49.513Z,15.0928
2023-05-08T05:51:52.137Z,17.6126
2023-05-08T05:52:54.728Z,15.6038
2023-05-08T05:53:57.350Z,13.7310
2023-05-08T05:54:59.911Z,13.8353
2023-05-08T05:56:02.538Z,13.4217
2023-05-08T05:57:05.109Z,14.2371
2023-05-08T05:58:07.731Z,15.2808
2023-05-08T06:00:25.236Z,14.3721
2023-05-08T06:01:27.863Z,14.6463
2023-05-08T06:02:30.549Z,16.5188
2023-05-08T06:03:33.145Z,13.8420
2023-05-08T06:04:35.712Z,13.9274
2023-05-08T06:05:38.291Z,15.4589
2023-05-08T06:06:40.852Z,13.7410
2023-05-08T06:07:43.503Z,13.3818
2023-05-08T06:08:46.059Z,13.6056
2023-05-08T06:09:48.685Z,14.7572
2023-05-08T06:10:51.269Z,14.8275
2023-05-08T06:11:53.888Z,17.0123
2023-05-08T06:12:56.541Z,14.4393
2023-05-08T06:13:59.083Z,13.2893
2023-05-08T06:15:01.670Z,13.3115
2023-05-08T06:16:04.284Z,13.6217
2023-05-08T06:18:07.670Z,11.8270
2023-05-08T06:19:10.195Z,13.5626
2023-05-08T06:20:12.829Z,13.9063
2023-05-08T06:21:15.407Z,13.3256
2023-05-08T06:22:18.131Z,13.6206
2023-05-08T06:23:20.609Z,13.1809
2023-05-08T06:24:23.251Z,13.7901
2023-05-08T06:25:25.822Z,14.3387
2023-05-08T06:26:28.449Z,15.0058
2023-05-08T06:27:31.036Z,13.6046
2023-05-08T06:28:33.652Z,12.8147
2023-05-08T06:29:36.249Z,13.2519
2023-05-08T06:30:38.918Z,13.9221
2023-05-08T06:31:41.448Z,14.4934
2023-05-08T06:32:44.115Z,12.8839
2023-05-08T06:33:46.642Z,12.4257
2023-05-08T06:34:49.276Z,13.5383
2023-05-08T06:35:51.861Z,14.1450
2023-05-08T06:36:54.487Z,12.4238
2023-05-08T06:37:57.104Z,13.3564
2023-05-08T06:38:59.889Z,12.1831
2023-05-08T06:41:04.889Z,14.0675
2023-05-08T06:42:08.076Z,12.4050
2023-05-08T06:43:10.081Z,12.1224
2023-05-08T06:44:12.663Z,12.9832
2023-05-08T06:45:16.012Z,11.4934
2023-05-08T06:46:17.909Z,13.4414
2023-05-08T06:47:20.513Z,12.8546
2023-05-08T06:48:23.054Z,11.5281
2023-05-08T06:49:25.678Z,12.4762
2023-05-08T06:50:28.326Z,11.5016
2023-05-08T06:51:30.881Z,11.1149
2023-05-08T06:52:33.495Z,12.1689
2023-05-08T06:53:36.090Z,12.1453
2023-05-08T06:54:38.651Z,11.9109
2023-05-08T06:55:41.273Z,11.2815
2023-05-08T06:56:43.858Z,11.6182
2023-05-08T06:57:47.791Z,13.6959
2023-05-08T06:58:57.169Z,13.0398
2023-05-08T06:59:53.709Z,13.7494
2023-05-08T07:00:54.248Z,11.8736
2023-05-08T07:01:56.900Z,10.9049
2023-05-08T07:02:59.537Z,9.5471
2023-05-08T07:04:02.061Z,9.3252
2023-05-08T07:05:04.720Z,10.7110
2023-05-08T07:06:07.259Z,8.6381
2023-05-08T07:07:09.850Z,10.2213
2023-05-08T07:08:12.480Z,10.1577
2023-05-08T07:09:15.038Z,9.4345
2023-05-08T07:10:18.210Z,9.5825
2023-05-08T07:11:20.225Z,8.7930
2023-05-08T07:12:22.865Z,9.2761
2023-05-08T07:13:25.456Z,9.4311
2023-05-08T07:14:28.052Z,9.7815
2023-05-08T07:15:30.755Z,8.9019
2023-05-08T07:16:33.369Z,10.0159
2023-05-08T07:17:35.872Z,9.8406
2023-05-08T07:18:38.441Z,9.3443
2023-05-08T07:19:41.060Z,10.9025
2023-05-08T07:20:43.651Z,10.2413
2023-05-08T07:21:46.316Z,11.4598
2023-05-08T07:22:48.855Z,11.1172
2023-05-08T07:23:51.513Z,11.9913
2023-05-08T07:24:54.048Z,12.2817
2023-05-08T07:25:56.969Z,12.4347
2023-05-08T07:26:59.248Z,14.5074
2023-05-08T07:28:01.873Z,18.6144
2023-05-08T07:29:04.444Z,19.1732
2023-05-08T07:30:07.076Z,18.7480
2023-05-08T07:31:09.702Z,18.8332
2023-05-08T07:32:12.272Z,19.4360
2023-05-08T07:35:13.504Z,11.0300
2023-05-08T07:36:15.759Z,12.1966
2023-05-08T07:37:18.309Z,12.2380
2023-05-08T07:38:20.948Z,11.9664
2023-05-08T07:39:23.533Z,11.6720
2023-05-08T07:41:31.626Z,9.6812
2023-05-08T07:42:34.022Z,9.4863
2023-05-08T07:43:36.652Z,11.0972
2023-05-08T07:44:50.970Z,11.5321
2023-05-08T07:45:41.856Z,9.8727
2023-05-08T07:46:44.591Z,10.8433
2023-05-08T07:47:47.103Z,10.9978
2023-05-08T07:48:49.636Z,10.8900
2023-05-08T07:49:52.261Z,10.9126
2023-05-08T07:50:55.189Z,10.0858
2023-05-08T07:51:57.467Z,9.0515
2023-05-08T07:53:00.050Z,8.3432
2023-05-08T07:54:02.669Z,9.2892
2023-05-08T07:55:05.252Z,9.0643
2023-05-08T07:56:07.908Z,8.9920
2023-05-08T07:57:10.482Z,9.3111
2023-05-08T07:58:13.091Z,9.1406
2023-05-08T07:59:15.659Z,10.2144
2023-05-08T08:00:18.519Z,10.5467
2023-05-08T08:01:20.868Z,9.6503
2023-05-08T08:02:23.549Z,10.3339
2023-05-08T08:03:26.175Z,10.1110
2023-05-08T08:04:28.791Z,9.4686
2023-05-08T08:05:31.271Z,9.7754
2023-05-08T08:06:34.011Z,9.3585
2023-05-08T08:07:36.468Z,10.7492
2023-05-08T08:08:39.092Z,11.5226
2023-05-08T08:09:41.670Z,14.2710
2023-05-08T08:10:44.285Z,15.4902
2023-05-08T08:11:46.863Z,15.7674
2023-05-08T08:12:49.620Z,17.1368
2023-05-08T08:13:52.060Z,16.3489
2023-05-08T08:14:54.674Z,15.7657
2023-05-08T08:15:57.378Z,12.9552
2023-05-08T08:16:59.933Z,12.1349
2023-05-08T08:18:02.492Z,10.7487
2023-05-08T08:19:05.087Z,11.6832
2023-05-08T08:20:07.665Z,10.7259
2023-05-08T08:21:10.272Z,11.0633
2023-05-08T08:22:12.844Z,11.3262
2023-05-08T08:23:15.495Z,10.3695
2023-05-08T08:24:18.055Z,12.8047
2023-05-08T08:25:20.678Z,11.0192
2023-05-08T08:26:23.262Z,10.4077
2023-05-08T08:28:31.216Z,9.2887
2023-05-08T08:29:33.734Z,10.9638
2023-05-08T08:30:36.618Z,10.8337
2023-05-08T08:31:39.081Z,12.7794
2023-05-08T08:32:41.672Z,11.7193
2023-05-08T08:33:44.138Z,11.7790
2023-05-08T08:34:46.707Z,11.8095
2023-05-08T08:35:49.337Z,13.3393
2023-05-08T08:36:52.048Z,13.4851
2023-05-08T08:37:54.521Z,14.7932
2023-05-08T08:38:57.087Z,15.9253
2023-05-08T08:39:59.716Z,14.3265
2023-05-08T08:41:02.288Z,15.1682
2023-05-08T08:42:04.903Z,14.9324
2023-05-08T08:43:07.476Z,14.2726
2023-05-08T08:44:10.211Z,15.5952
2023-05-08T08:45:14.035Z,13.6238
2023-05-08T08:46:15.422Z,14.1507
2023-05-08T08:47:17.857Z,12.5631
2023-05-08T08:48:20.500Z,13.5469
2023-05-08T08:49:23.115Z,14.1066
2023-05-08T08:50:25.677Z,15.5765
2023-05-08T08:51:28.246Z,15.9917
2023-05-08T08:52:31.474Z,16.0526
2023-05-08T08:53:33.431Z,16.8123
2023-05-08T08:54:36.102Z,16.8164
2023-05-08T08:55:38.621Z,19.3724
2023-05-08T08:56:41.243Z,17.9909
2023-05-08T08:57:43.810Z,18.1361
2023-05-08T08:58:46.444Z,20.0404
2023-05-08T08:59:49.109Z,19.8515
2023-05-08T09:00:51.664Z,19.2971
2023-05-08T09:01:54.287Z,22.6388
2023-05-08T09:02:57.055Z,20.0078
2023-05-08T09:03:59.494Z,19.5157
2023-05-08T09:05:02.044Z,20.3616
2023-05-08T09:06:04.587Z,20.7976
2023-05-08T09:07:07.204Z,20.1355
2023-05-08T09:08:09.786Z,19.9717
2023-05-08T09:09:12.406Z,20.6344
2023-05-08T09:10:15.016Z,20.0553
2023-05-08T09:11:17.702Z,22.0391
2023-05-08T09:12:20.141Z,21.8416
2023-05-08T09:13:22.878Z,21.9049
2023-05-08T09:14:25.348Z,20.8269
2023-05-08T09:15:28.167Z,22.4105
2023-05-08T09:16:30.556Z,23.6052
2023-05-08T09:17:33.143Z,21.4140
2023-05-08T09:18:35.704Z,20.3749
2023-05-08T09:19:38.321Z,21.1965
2023-05-08T09:20:40.897Z,17.2616
2023-05-08T09:21:43.522Z,19.7194
2023-05-08T09:22:46.070Z,21.8491
2023-05-08T09:23:48.693Z,20.2020
2023-05-08T09:24:51.264Z,23.2629
2023-05-08T09:25:53.876Z,21.5034
2023-05-08T09:26:56.441Z,21.5558
2023-05-08T09:27:59.069Z,20.1737
2023-05-08T09:29:01.725Z,21.4498
2023-05-08T09:30:04.355Z,21.7800
2023-05-08T09:31:06.923Z,21.2761
2023-05-08T09:32:09.569Z,21.4297
2023-05-08T09:33:12.035Z,24.6286
2023-05-08T09:34:14.654Z,22.1034
2023-05-08T09:35:17.343Z,23.7675
2023-05-08T09:36:19.798Z,23.3339
2023-05-08T09:37:22.368Z,23.2864
2023-05-08T09:38:24.985Z,23.4035
2023-05-08T09:40:52.026Z,22.1749
2023-05-08T09:41:54.673Z,25.2704
2023-05-08T09:42:57.213Z,24.3506
2023-05-08T09:44:00.432Z,23.9158
2023-05-08T09:45:02.402Z,25.2316
2023-05-08T09:46:05.045Z,24.9349
2023-05-08T09:47:07.688Z,24.8767
2023-05-08T09:48:10.241Z,22.6735
2023-05-08T09:49:12.765Z,27.9080
2023-05-08T09:50:15.545Z,29.8604
2023-05-08T09:51:17.976Z,27.3727
2023-05-08T09:52:20.561Z,27.4812
2023-05-08T09:53:23.134Z,27.5245
2023-05-08T09:54:25.752Z,28.2938
2023-05-08T09:55:28.338Z,26.5220
2023-05-08T09:56:30.934Z,28.9595
2023-05-08T09:57:33.494Z,29.7580
2023-05-08T09:58:36.120Z,28.2998
2023-05-08T09:59:38.798Z,24.9791
2023-05-08T10:00:41.287Z,25.8899
2023-05-08T10:01:43.953Z,25.7341
2023-05-08T10:02:46.574Z,24.5720
2023-05-08T10:03:49.197Z,26.1397
2023-05-08T10:04:51.685Z,25.9338
2023-05-08T10:05:54.213Z,28.3018
2023-05-08T10:06:56.831Z,24.8491
2023-05-08T10:07:59.573Z,24.0875
2023-05-08T10:09:02.003Z,25.1418
2023-05-08T10:10:04.574Z,27.2810
2023-05-08T10:11:07.192Z,27.3745
2023-05-08T10:12:09.746Z,25.3703
2023-05-08T10:13:12.435Z,26.0462
2023-05-08T10:14:14.937Z,27.1968
2023-05-08T10:15:17.590Z,29.9603
2023-05-08T10:16:20.113Z,29.4148
2023-05-08T10:17:22.795Z,27.3114
2023-05-08T10:18:25.386Z,28.0073
2023-05-08T10:19:27.884Z,29.4768
2023-05-08T10:20:30.451Z,29.0533
2023-05-08T10:21:33.060Z,25.9047
2023-05-08T10:22:35.622Z,29.3025
2023-05-08T10:23:38.232Z,31.4550
2023-05-08T10:24:40.816Z,32.0585
2023-05-08T10:25:43.419Z,30.9449
2023-05-08T10:26:57.178Z,32.0077
2023-05-08T10:27:48.584Z,35.1806
2023-05-08T10:28:51.173Z,33.5197
2023-05-08T10:29:53.813Z,31.4597
2023-05-08T10:30:56.357Z,30.2348
2023-05-08T10:31:58.937Z,30.7775
2023-05-08T10:33:01.539Z,30.3018
2023-05-08T10:34:04.179Z,30.3647
2023-05-08T10:35:06.656Z,33.1363
2023-05-08T10:36:09.281Z,32.0668
2023-05-08T10:37:11.846Z,32.7614
2023-05-08T10:38:14.439Z,37.3730
2023-05-08T10:39:16.998Z,36.7334
2023-05-08T10:40:19.608Z,35.0127
2023-05-08T10:41:22.165Z,28.9347
2023-05-08T10:42:24.782Z,31.3506
2023-05-08T10:43:27.351Z,33.7394
2023-05-08T10:44:29.950Z,33.7232
2023-05-08T10:45:32.526Z,36.1803
2023-05-08T10:46:35.192Z,37.8500
2023-05-08T10:47:38.021Z,37.9517
2023-05-08T10:48:40.303Z,37.2517
2023-05-08T10:49:42.862Z,38.1634
2023-05-08T10:50:45.455Z,41.1110
2023-05-08T10:51:48.021Z,40.7297
2023-05-08T10:52:50.630Z,39.5633
2023-05-08T10:53:53.184Z,37.6926
2023-05-08T10:54:55.807Z,36.9614
2023-05-08T10:55:58.393Z,41.1228
2023-05-08T10:57:00.966Z,38.7188
2023-05-08T10:58:03.577Z,36.8271
2023-05-08T10:59:06.134Z,40.1175
2023-05-08T11:00:08.700Z,39.3006
2023-05-08T11:01:11.397Z,37.0594
2023-05-08T11:02:14.029Z,35.9222
2023-05-08T11:03:29.925Z,39.1417
2023-05-08T11:04:19.102Z,37.1606
2023-05-08T11:05:21.663Z,38.7737
2023-05-08T11:06:24.236Z,36.6072
2023-05-08T11:07:26.838Z,35.7928
2023-05-08T11:08:29.399Z,35.4624
2023-05-08T11:09:32.015Z,35.2411
2023-05-08T11:10:34.580Z,37.6540
2023-05-08T11:11:37.198Z,34.7492
2023-05-08T11:12:39.792Z,33.1309
2023-05-08T11:13:42.368Z,35.7542
2023-05-08T11:14:44.933Z,33.9447
2023-05-08T11:15:47.570Z,33.8537
2023-05-08T11:16:50.116Z,30.3325
2023-05-08T11:17:52.802Z,30.1507
2023-05-08T11:18:55.624Z,28.9262
2023-05-08T11:19:57.890Z,27.5275
2023-05-08T11:21:00.462Z,29.2254
2023-05-08T11:22:03.057Z,29.2617
2023-05-08T11:23:05.626Z,30.6867
2023-05-08T11:24:08.239Z,25.8187
2023-05-08T11:25:10.805Z,26.7041
2023-05-08T11:26:13.475Z,25.2127
2023-05-08T11:27:16.019Z,25.6834
2023-05-08T11:28:18.595Z,24.3508
2023-05-08T11:29:21.390Z,23.5222
2023-05-08T11:30:23.788Z,22.9520
2023-05-08T11:31:26.390Z,21.6362
2023-05-08T11:34:22.369Z,21.8664
2023-05-08T11:35:24.929Z,22.3224
2023-05-08T11:36:27.536Z,20.3910
2023-05-08T11:37:30.119Z,20.1029
2023-05-08T11:38:32.759Z,16.8024
2023-05-08T11:39:35.269Z,16.5888
2023-05-08T11:40:37.890Z,14.8943
2023-05-08T11:41:40.462Z,16.6808
2023-05-08T11:42:43.069Z,17.2595
2023-05-08T11:43:45.640Z,17.5759
2023-05-08T11:44:48.244Z,17.3973
2023-05-08T11:45:50.810Z,17.6463
2023-05-08T11:46:53.640Z,18.0748
2023-05-08T11:47:56.063Z,19.7352
2023-05-08T11:48:58.616Z,18.2045
2023-05-08T11:50:01.174Z,17.6969
2023-05-08T11:51:03.810Z,17.2797
2023-05-08T11:52:06.349Z,18.3264
2023-05-08T11:53:08.956Z,18.1837
2023-05-08T11:54:11.529Z,17.4998
2023-05-08T11:55:14.142Z,21.0857
2023-05-08T11:56:16.709Z,22.0643
2023-05-08T11:57:19.312Z,21.2728
2023-05-08T11:58:21.901Z,22.7282
2023-05-08T11:59:24.516Z,20.2057
2023-05-08T12:00:27.165Z,18.0539
2023-05-08T12:01:29.677Z,24.9539
2023-05-08T12:02:34.039Z,33.3427
2023-05-08T12:03:34.932Z,57.6251
2023-05-08T12:04:37.430Z,60.2691
2023-05-08T12:05:40.038Z,23.6500
2023-05-08T12:06:42.613Z,19.2209
2023-05-08T12:07:45.221Z,19.8726
2023-05-08T12:08:47.775Z,19.4404
2023-05-08T12:09:50.391Z,17.5282
2023-05-08T12:10:52.966Z,20.1923
2023-05-08T12:11:55.575Z,17.9228
2023-05-08T12:12:58.180Z,18.2522
2023-05-08T12:14:00.751Z,18.0542
2023-05-08T12:15:03.307Z,18.7515
2023-05-08T12:16:05.942Z,17.3786
2023-05-08T12:17:08.562Z,18.3248
2023-05-08T12:18:11.145Z,16.9905
2023-05-08T12:19:13.676Z,15.6687
2023-05-08T12:20:16.878Z,14.3628
2023-05-08T12:21:18.850Z,16.2285
2023-05-08T12:22:21.469Z,17.0781
2023-05-08T12:23:24.023Z,16.5175
2023-05-08T12:24:26.657Z,16.4288
2023-05-08T12:25:29.183Z,15.9360
2023-05-08T12:26:31.788Z,17.9511
2023-05-08T12:27:34.352Z,17.8502
2023-05-08T12:28:36.967Z,15.5042
2023-05-08T12:29:39.527Z,17.1556
2023-05-08T12:30:42.156Z,16.0167
2023-05-08T12:31:44.790Z,14.9990
2023-05-08T12:32:47.383Z,13.2551
2023-05-08T12:33:49.864Z,14.0731
2023-05-08T12:34:52.494Z,13.7554
2023-05-08T12:35:55.342Z,12.9613
2023-05-08T12:36:57.673Z,10.8518
2023-05-08T12:38:00.221Z,14.6761
2023-05-08T12:39:02.923Z,12.7721
2023-05-08T12:40:05.392Z,12.9076
2023-05-08T12:41:08.030Z,13.1433
2023-05-08T12:42:10.565Z,12.7488
2023-05-08T12:43:13.165Z,13.1830
2023-05-08T12:44:15.742Z,13.3694
2023-05-08T12:45:18.313Z,12.5919
2023-05-08T12:46:20.942Z,14.1219
2023-05-08T12:47:23.547Z,13.0297
2023-05-08T12:48:26.089Z,11.7107
2023-05-08T12:49:28.662Z,12.2934
2023-05-08T12:50:31.256Z,11.7558
2023-05-08T12:51:34.158Z,13.1772
2023-05-08T12:52:36.427Z,10.7824
2023-05-08T12:53:38.990Z,12.7653
2023-05-08T12:54:41.686Z,12.3102
2023-05-08T12:55:44.151Z,10.5007